GABS/BKO METAR and TAF weather

Enter ICAO airport designator
Station Type Date Time Source
GABS METAR UTC NOAA

Error!


Station Type Date Time Source
GABS Decoded METAR UTC NOAA

Bamako / Senou, Mali (GABS) 12-32N 007-57W 381M
May 11, 2021 - 11:30 AM EDT / 2021.05.11 1530 UTC
Wind: Variable at 5 MPH (4 KT):0
Visibility: greater than 7 mile(s):0
Sky conditions: mostly clear
Temperature: 100 F (38 C)
Heat index: 104.2 F (40.1 C):1
Dew Point: 66 F (19 C)
Relative Humidity: 33%
Pressure (altimeter): 29.88 in. Hg (1012 hPa)
ob: GABS 111530Z VRB04KT 9999 FEW030 38/19 Q1012 NOSIG
cycle: 15

Station Type Date Time Source
GABS TAF UTC NOAA

Error!

Example: see airport list